logo
Search for airport 
image banner adimage banner adimage banner ad
image banner ad

FASD - Saldanha-Vredenburg

Located in Vredenburg, South Africa

ICAO - FASD, IATA -

Data provided by Airmate  

General information

Coordinates: S32°57'48" E17°58'12"
Elevation is 50 feet MSL.
 
View others Airports in Western Cape

Operational data

Special qualification required
Current time UTC:
Current local time:
METAR: FALW 230500Z AUTO 09002KT //// // ////// 15/14 Q1016
View NOTAMs / SUP AIP / TFR affecting this airport [VIEW]
Communications frequencies: [VIEW]

Runways:

RWY identifierQFULength (ft)Width (ft)SurfaceLDA (ft)
02358°466582ASP
20178°466582ASP

Airport contact information

Address: Vredenburg South Africa

Satellite view of FASD